Wetterdaten: Woche 15.09.03 - 21.09.03 (KW38)
Datum Zeit Temperatur Luftfeuchte Luftdruck Regenmenge Wind Richtung Taupunkt Windchill
15.09.2003 00:00 13.1 C 62 % 1025.2 hPa 0.0 l/m 1.5 km/h (1 Bft) NO 6.0 C 13.1 C
15.09.2003 01:00 12.5 C 64 % 1025.2 hPa 0.0 l/m 0.5 km/h (0 Bft) O 5.9 C 12.5 C
15.09.2003 02:00 11.6 C 69 % 1025.2 hPa 0.0 l/m 0.2 km/h (0 Bft) N 6.0 C 11.6 C
15.09.2003 03:00 9.8 C 77 % 1025.2 hPa 0.0 l/m 0.3 km/h (0 Bft) O 6.0 C 9.8 C
15.09.2003 04:00 8.5 C 86 % 1024.2 hPa 0.0 l/m 4.9 km/h (1 Bft) O 6.3 C 8.0 C
15.09.2003 05:00 8.2 C 89 % 1024.3 hPa 0.0 l/m 6.5 km/h (2 Bft) O-SO 6.4 C 7.2 C
15.09.2003 06:00 7.4 C 92 % 1025.2 hPa 0.0 l/m 0.6 km/h (0 Bft) O-SO 6.1 C 7.3 C
15.09.2003 07:00 7.0 C 93 % 1025.2 hPa 0.0 l/m 1.6 km/h (1 Bft) O-SO 6.0 C 6.8 C
15.09.2003 08:00 8.8 C 95 % 1025.2 hPa 0.0 l/m 0.0 km/h (0 Bft) N 8.1 C 8.8 C
15.09.2003 09:00 10.9 C 83 % 1025.5 hPa 0.0 l/m 0.5 km/h (0 Bft) O-SO 8.0 C 10.9 C
15.09.2003 10:00 13.7 C 70 % 1025.9 hPa 0.0 l/m 12.0 km/h (2 Bft) O-SO 8.4 C 13.7 C
15.09.2003 11:00 15.4 C 65 % 1025.4 hPa 0.0 l/m 11.6 km/h (2 Bft) O-SO 8.8 C 15.4 C
15.09.2003 12:00 17.3 C 59 % 1025.2 hPa 0.0 l/m 13.1 km/h (3 Bft) O-SO 9.2 C 17.3 C
15.09.2003 13:00 18.8 C 54 % 1024.9 hPa 0.0 l/m 13.8 km/h (3 Bft) O-SO 9.2 C 18.8 C
15.09.2003 14:00 20.3 C 47 % 1024.2 hPa 0.0 l/m 13.1 km/h (3 Bft) O-SO 8.7 C 20.3 C
15.09.2003 15:00 20.9 C 46 % 1023.9 hPa 0.0 l/m 12.7 km/h (3 Bft) O-SO 8.8 C 20.9 C
15.09.2003 16:00 21.2 C 44 % 1023.6 hPa 0.0 l/m 19.0 km/h (3 Bft) O-SO 8.5 C 21.2 C
15.09.2003 17:00 20.9 C 40 % 1023.1 hPa 0.0 l/m 21.7 km/h (4 Bft) O-SO 6.9 C 20.9 C
15.09.2003 18:00 20.0 C 43 % 1023.1 hPa 0.0 l/m 10.3 km/h (2 Bft) O-SO 7.2 C 20.0 C
15.09.2003 19:00 17.7 C 51 % 1023.1 hPa 0.0 l/m 3.1 km/h (1 Bft) O-SO 7.4 C 17.7 C
15.09.2003 20:00 14.4 C 69 % 1023.9 hPa 0.0 l/m 3.0 km/h (1 Bft) O-SO 8.7 C 14.4 C
15.09.2003 21:00 12.5 C 77 % 1024.2 hPa 0.0 l/m 3.0 km/h (1 Bft) O-SO 8.6 C 12.5 C
15.09.2003 22:00 11.1 C 84 % 1024.2 hPa 0.0 l/m 3.0 km/h (1 Bft) O-SO 8.5 C 11.1 C
15.09.2003 23:00 10.3 C 88 % 1024.2 hPa 0.0 l/m 3.6 km/h (1 Bft) O-SO 8.3 C 10.3 C
16.09.2003 00:00 9.5 C 91 % 1024.2 hPa 0.0 l/m 1.1 km/h (0 Bft) O-SO 8.1 C 9.5 C
16.09.2003 01:00 8.5 C 93 % 1024.2 hPa 0.0 l/m 1.2 km/h (1 Bft) O-SO 7.4 C 8.5 C
16.09.2003 02:00 8.1 C 94 % 1024.2 hPa 0.0 l/m 2.0 km/h (1 Bft) O-SO 7.2 C 7.9 C
16.09.2003 03:00 7.8 C 95 % 1024.2 hPa 0.0 l/m 1.0 km/h (0 Bft) O-SO 7.0 C 7.7 C
16.09.2003 04:00 7.1 C 95 % 1024.2 hPa 0.0 l/m 1.4 km/h (1 Bft) O-SO 6.3 C 7.0 C
16.09.2003 05:00 6.4 C 95 % 1024.2 hPa 0.0 l/m 0.2 km/h (0 Bft) O-SO 5.7 C 6.4 C
16.09.2003 06:00 6.1 C 95 % 1024.2 hPa 0.0 l/m 1.4 km/h (1 Bft) O-SO 5.4 C 6.0 C
16.09.2003 07:00 6.4 C 95 % 1024.5 hPa 0.0 l/m 1.8 km/h (1 Bft) O-SO 5.6 C 6.0 C
16.09.2003 08:00 7.8 C 99 % 1025.2 hPa 0.0 l/m 0.0 km/h (0 Bft) N 7.7 C 7.8 C
16.09.2003 09:00 9.4 C 93 % 1025.2 hPa 0.0 l/m 0.0 km/h (0 Bft) N 8.3 C 9.4 C
16.09.2003 10:00 12.0 C 79 % 1025.2 hPa 0.0 l/m 0.1 km/h (0 Bft) NW 8.5 C 12.0 C
16.09.2003 11:00 14.9 C 70 % 1025.2 hPa 0.0 l/m 0.5 km/h (0 Bft) W-NW 9.5 C 14.9 C
16.09.2003 12:00 17.2 C 62 % 1024.5 hPa 0.0 l/m 3.5 km/h (1 Bft) NW 9.8 C 17.2 C
16.09.2003 13:00 20.0 C 49 % 1024.1 hPa 0.0 l/m 2.5 km/h (1 Bft) W-NW 8.9 C 20.0 C
16.09.2003 14:00 22.6 C 33 % 1023.1 hPa 0.0 l/m 0.8 km/h (0 Bft) W-NW 5.3 C 22.6 C
16.09.2003 15:00 23.6 C 29 % 1023.1 hPa 0.0 l/m 2.2 km/h (1 Bft) W-NW 4.5 C 23.6 C
16.09.2003 16:00 24.0 C 30 % 1022.5 hPa 0.0 l/m 1.2 km/h (1 Bft) W-NW 5.4 C 24.0 C
16.09.2003 17:00 23.2 C 32 % 1022.1 hPa 0.0 l/m 1.0 km/h (0 Bft) W-NW 5.6 C 23.2 C
16.09.2003 18:00 22.2 C 34 % 1022.1 hPa 0.0 l/m 1.4 km/h (1 Bft) W-NW 5.7 C 22.2 C
16.09.2003 19:00 19.3 C 46 % 1022.1 hPa 0.0 l/m 1.0 km/h (0 Bft) W-NW 7.3 C 19.3 C
16.09.2003 20:00 16.1 C 64 % 1023.0 hPa 0.0 l/m 2.1 km/h (1 Bft) O-SO 9.2 C 16.1 C
16.09.2003 21:00 14.3 C 72 % 1023.1 hPa 0.0 l/m 3.0 km/h (1 Bft) O-SO 9.3 C 14.3 C
16.09.2003 22:00 12.8 C 78 % 1023.1 hPa 0.0 l/m 1.7 km/h (1 Bft) O-SO 9.1 C 12.8 C
16.09.2003 23:00 12.0 C 80 % 1023.9 hPa 0.0 l/m 1.6 km/h (1 Bft) O-SO 8.7 C 12.0 C
17.09.2003 00:00 11.0 C 85 % 1024.2 hPa 0.0 l/m 0.0 km/h (0 Bft) N 8.5 C 11.0 C
17.09.2003 01:00 10.0 C 88 % 1024.2 hPa 0.0 l/m 0.0 km/h (0 Bft) N 8.1 C 10.0 C
17.09.2003 02:00 9.6 C 91 % 1024.2 hPa 0.0 l/m 0.7 km/h (0 Bft) O-SO 8.2 C 9.5 C
17.09.2003 03:00 9.0 C 92 % 1023.6 hPa 0.0 l/m 0.0 km/h (0 Bft) N 7.9 C 9.0 C
17.09.2003 04:00 8.2 C 94 % 1023.1 hPa 0.0 l/m 0.2 km/h (0 Bft) O-SO 7.2 C 8.2 C
17.09.2003 05:00 7.5 C 95 % 1023.1 hPa 0.0 l/m 0.0 km/h (0 Bft) N 6.7 C 7.5 C
17.09.2003 06:00 7.3 C 95 % 1023.4 hPa 0.0 l/m 0.0 km/h (0 Bft) N 6.6 C 7.3 C
17.09.2003 07:00 7.1 C 95 % 1024.2 hPa 0.0 l/m 0.2 km/h (0 Bft) O-SO 6.4 C 7.1 C
17.09.2003 08:00 8.6 C 100 % 1024.2 hPa 0.0 l/m 0.0 km/h (0 Bft) N 8.5 C 8.6 C
17.09.2003 09:00 10.6 C 88 % 1024.2 hPa 0.0 l/m 0.2 km/h (0 Bft) O 8.7 C 10.6 C
17.09.2003 10:00 13.4 C 72 % 1024.2 hPa 0.0 l/m 0.1 km/h (0 Bft) N 8.3 C 13.4 C
17.09.2003 11:00 16.7 C 62 % 1024.2 hPa 0.0 l/m 0.8 km/h (0 Bft) W-NW 9.5 C 16.7 C
17.09.2003 12:00 20.1 C 54 % 1023.3 hPa 0.0 l/m 10.3 km/h (2 Bft) O-SO 10.4 C 20.1 C
17.09.2003 13:00 22.8 C 46 % 1023.1 hPa 0.0 l/m 14.6 km/h (3 Bft) O-SO 10.5 C 22.8 C
17.09.2003 14:00 24.1 C 37 % 1022.2 hPa 0.0 l/m 13.5 km/h (3 Bft) O-SO 8.5 C 24.1 C
17.09.2003 15:00 24.9 C 33 % 1021.7 hPa 0.0 l/m 9.3 km/h (2 Bft) O-SO 7.6 C 24.9 C
17.09.2003 16:00 25.1 C 32 % 1021.1 hPa 0.0 l/m 6.1 km/h (2 Bft) O-SO 7.0 C 25.1 C
17.09.2003 17:00 24.6 C 31 % 1021.1 hPa 0.0 l/m 12.3 km/h (3 Bft) O-SO 6.3 C 24.6 C
17.09.2003 18:00 23.2 C 35 % 1021.1 hPa 0.0 l/m 4.3 km/h (1 Bft) O-SO 6.7 C 23.2 C
17.09.2003 19:00 20.0 C 50 % 1021.1 hPa 0.0 l/m 2.7 km/h (1 Bft) SO 9.1 C 20.0 C
17.09.2003 20:00 16.6 C 65 % 1021.4 hPa 0.0 l/m 3.8 km/h (1 Bft) SO 9.9 C 16.6 C
17.09.2003 21:00 14.4 C 72 % 1022.1 hPa 0.0 l/m 1.2 km/h (1 Bft) SO 9.4 C 14.4 C
17.09.2003 22:00 12.7 C 79 % 1022.1 hPa 0.0 l/m 0.8 km/h (0 Bft) SO 9.1 C 12.7 C
17.09.2003 23:00 11.9 C 79 % 1022.1 hPa 0.0 l/m 3.7 km/h (1 Bft) O-SO 8.4 C 11.9 C
18.09.2003 00:00 10.5 C 83 % 1022.1 hPa 0.0 l/m 0.0 km/h (0 Bft) N 7.7 C 10.5 C
18.09.2003 01:00 9.5 C 88 % 1022.1 hPa 0.0 l/m 0.8 km/h (0 Bft) SO 7.6 C 9.4 C
18.09.2003 02:00 8.9 C 91 % 1022.1 hPa 0.0 l/m 1.1 km/h (1 Bft) SO 7.5 C 8.9 C
18.09.2003 03:00 8.3 C 93 % 1022.1 hPa 0.0 l/m 1.7 km/h (1 Bft) SO 7.2 C 8.3 C
18.09.2003 04:00 8.1 C 94 % 1022.1 hPa 0.0 l/m 0.4 km/h (0 Bft) O-SO 7.2 C 8.1 C
18.09.2003 05:00 7.6 C 95 % 1022.1 hPa 0.0 l/m 0.9 km/h (0 Bft) SO 6.8 C 7.6 C
18.09.2003 06:00 7.3 C 95 % 1022.3 hPa 0.0 l/m 0.0 km/h (0 Bft) N 6.6 C 7.3 C
18.09.2003 07:00 7.0 C 96 % 1023.1 hPa 0.0 l/m 0.0 km/h (0 Bft) N 6.5 C 7.0 C
18.09.2003 08:00 8.7 C 99 % 1023.1 hPa 0.0 l/m 0.0 km/h (0 Bft) N 8.6 C 8.7 C
18.09.2003 09:00 10.7 C 91 % 1023.1 hPa 0.0 l/m 0.0 km/h (0 Bft) N 9.3 C 10.7 C
18.09.2003 10:00 13.9 C 80 % 1023.1 hPa 0.0 l/m 1.1 km/h (0 Bft) SO 10.5 C 13.9 C
18.09.2003 11:00 17.5 C 68 % 1023.1 hPa 0.0 l/m 3.3 km/h (1 Bft) SO 11.5 C 17.5 C
18.09.2003 12:00 20.6 C 57 % 1022.3 hPa 0.0 l/m 4.2 km/h (1 Bft) SO 11.7 C 20.6 C
18.09.2003 13:00 23.6 C 47 % 1021.6 hPa 0.0 l/m 9.8 km/h (2 Bft) SO 11.5 C 23.6 C
18.09.2003 14:00 26.0 C 38 % 1021.1 hPa 0.0 l/m 5.4 km/h (1 Bft) O-SO 10.5 C 26.0 C
18.09.2003 15:00 26.6 C 34 % 1020.1 hPa 0.0 l/m 3.6 km/h (1 Bft) W-NW 9.3 C 26.6 C
18.09.2003 16:00 26.7 C 32 % 1020.0 hPa 0.0 l/m 1.9 km/h (1 Bft) O-SO 8.9 C 26.7 C
18.09.2003 17:00 26.4 C 33 % 1019.3 hPa 0.0 l/m 2.7 km/h (1 Bft) SO 8.6 C 26.4 C
18.09.2003 18:00 24.8 C 37 % 1019.0 hPa 0.0 l/m 0.9 km/h (0 Bft) S-SO 9.1 C 24.8 C
18.09.2003 19:00 21.7 C 51 % 1019.2 hPa 0.0 l/m 8.8 km/h (2 Bft) O-SO 11.0 C 21.7 C
18.09.2003 20:00 18.2 C 63 % 1020.0 hPa 0.0 l/m 8.8 km/h (2 Bft) O-SO 10.9 C 18.2 C
18.09.2003 21:00 15.3 C 75 % 1020.0 hPa 0.0 l/m 1.1 km/h (1 Bft) O-SO 10.8 C 15.3 C
18.09.2003 22:00 13.6 C 82 % 1020.7 hPa 0.0 l/m 0.3 km/h (0 Bft) O-SO 10.5 C 13.6 C
18.09.2003 23:00 12.8 C 86 % 1021.1 hPa 0.0 l/m 0.2 km/h (0 Bft) N 10.5 C 12.8 C
19.09.2003 00:00 11.9 C 89 % 1021.1 hPa 0.0 l/m 0.0 km/h (0 Bft) N 10.1 C 11.9 C
19.09.2003 01:00 11.0 C 91 % 1021.3 hPa 0.0 l/m 1.0 km/h (0 Bft) O-SO 9.7 C 11.0 C
19.09.2003 02:00 10.6 C 93 % 1021.4 hPa 0.0 l/m 0.0 km/h (0 Bft) N 9.5 C 10.6 C
19.09.2003 03:00 10.0 C 93 % 1021.5 hPa 0.0 l/m 0.0 km/h (0 Bft) N 8.9 C 10.0 C
19.09.2003 04:00 9.5 C 94 % 1022.1 hPa 0.0 l/m 0.0 km/h (0 Bft) N 8.6 C 9.5 C
19.09.2003 05:00 9.2 C 95 % 1022.1 hPa 0.0 l/m 0.0 km/h (0 Bft) N 8.4 C 9.2 C
19.09.2003 06:00 8.7 C 95 % 1022.1 hPa 0.0 l/m 0.0 km/h (0 Bft) N 8.0 C 8.7 C
19.09.2003 07:00 8.6 C 95 % 1022.4 hPa 0.0 l/m 0.0 km/h (0 Bft) N 7.9 C 8.6 C
19.09.2003 08:00 9.9 C 99 % 1023.1 hPa 0.0 l/m 0.0 km/h (0 Bft) N 9.8 C 9.9 C
19.09.2003 09:00 11.6 C 94 % 1023.1 hPa 0.0 l/m 0.0 km/h (0 Bft) N 10.7 C 11.6 C
19.09.2003 10:00 14.4 C 83 % 1023.1 hPa 0.0 l/m 0.0 km/h (0 Bft) N 11.5 C 14.4 C
19.09.2003 11:00 17.7 C 70 % 1022.9 hPa 0.0 l/m 1.0 km/h (0 Bft) SO 12.1 C 17.7 C
19.09.2003 12:00 21.2 C 58 % 1022.1 hPa 0.0 l/m 1.6 km/h (1 Bft) O-SO 12.5 C 21.2 C
19.09.2003 13:00 23.6 C 50 % 1021.8 hPa 0.0 l/m 1.9 km/h (1 Bft) SO 12.5 C 23.6 C
19.09.2003 14:00 26.2 C 38 % 1021.1 hPa 0.0 l/m 2.6 km/h (1 Bft) O-SO 10.5 C 26.2 C
19.09.2003 15:00 27.4 C 31 % 1020.4 hPa 0.0 l/m 1.0 km/h (0 Bft) S-SO 8.8 C 27.4 C
19.09.2003 16:00 27.9 C 27 % 1020.0 hPa 0.0 l/m 1.8 km/h (1 Bft) O-SO 7.0 C 27.9 C
19.09.2003 17:00 27.5 C 27 % 1020.0 hPa 0.0 l/m 2.8 km/h (1 Bft) O-SO 7.0 C 27.5 C
19.09.2003 18:00 25.9 C 35 % 1020.0 hPa 0.0 l/m 3.1 km/h (1 Bft) O-SO 9.2 C 25.9 C
19.09.2003 19:00 22.5 C 49 % 1020.2 hPa 0.0 l/m 7.0 km/h (2 Bft) O-SO 11.2 C 22.5 C
19.09.2003 20:00 18.2 C 67 % 1021.1 hPa 0.0 l/m 2.4 km/h (1 Bft) O-SO 11.9 C 18.2 C
19.09.2003 21:00 16.2 C 74 % 1021.6 hPa 0.0 l/m 0.0 km/h (0 Bft) N 11.6 C 16.2 C
19.09.2003 22:00 14.5 C 81 % 1022.1 hPa 0.0 l/m 0.0 km/h (0 Bft) N 11.3 C 14.5 C
19.09.2003 23:00 13.3 C 87 % 1022.1 hPa 0.0 l/m 0.0 km/h (0 Bft) N 11.2 C 13.3 C
20.09.2003 00:00 12.6 C 88 % 1022.1 hPa 0.0 l/m 0.0 km/h (0 Bft) N 10.6 C 12.6 C
20.09.2003 01:00 11.9 C 91 % 1022.1 hPa 0.0 l/m 0.6 km/h (0 Bft) O-SO 10.4 C 11.9 C
20.09.2003 02:00 11.3 C 92 % 1022.1 hPa 0.0 l/m 0.6 km/h (0 Bft) O-SO 10.1 C 11.3 C
20.09.2003 03:00 10.6 C 92 % 1022.5 hPa 0.0 l/m 0.9 km/h (0 Bft) O-SO 9.4 C 10.6 C
20.09.2003 04:00 10.2 C 94 % 1023.1 hPa 0.0 l/m 0.2 km/h (0 Bft) O-SO 9.2 C 10.2 C
20.09.2003 05:00 9.3 C 94 % 1023.1 hPa 0.0 l/m 0.0 km/h (0 Bft) N 8.3 C 9.3 C
20.09.2003 06:00 8.9 C 94 % 1023.1 hPa 0.0 l/m 0.0 km/h (0 Bft) N 8.1 C 8.9 C
20.09.2003 07:00 8.9 C 97 % 1024.1 hPa 0.0 l/m 0.0 km/h (0 Bft) N 8.4 C 8.9 C
20.09.2003 08:00 10.4 C 99 % 1024.2 hPa 0.0 l/m 0.0 km/h (0 Bft) N 10.2 C 10.4 C
20.09.2003 09:00 12.6 C 88 % 1024.3 hPa 0.0 l/m 0.0 km/h (0 Bft) N 10.6 C 12.6 C
20.09.2003 10:00 15.7 C 79 % 1024.5 hPa 0.0 l/m 0.1 km/h (0 Bft) N 12.0 C 15.7 C
20.09.2003 11:00 18.9 C 67 % 1024.2 hPa 0.0 l/m 0.8 km/h (0 Bft) W-NW 12.5 C 18.9 C
20.09.2003 12:00 21.9 C 55 % 1023.8 hPa 0.0 l/m 1.1 km/h (0 Bft) W-NW 12.3 C 21.9 C
20.09.2003 13:00 24.6 C 42 % 1023.1 hPa 0.0 l/m 0.6 km/h (0 Bft) W-NW 10.6 C 24.6 C
20.09.2003 14:00 27.1 C 31 % 1022.2 hPa 0.0 l/m 3.6 km/h (1 Bft) W-NW 8.4 C 27.1 C
20.09.2003 15:00 28.2 C 27 % 1021.2 hPa 0.0 l/m 2.4 km/h (1 Bft) W-NW 7.6 C 28.2 C
20.09.2003 16:00 29.0 C 25 % 1021.1 hPa 0.0 l/m 8.0 km/h (2 Bft) O-SO 6.9 C 29.0 C
20.09.2003 17:00 28.5 C 27 % 1021.1 hPa 0.0 l/m 10.7 km/h (2 Bft) O-SO 7.7 C 28.5 C
20.09.2003 18:00 27.2 C 31 % 1021.1 hPa 0.0 l/m 9.6 km/h (2 Bft) O-SO 8.3 C 27.2 C
20.09.2003 19:00 23.5 C 45 % 1021.1 hPa 0.0 l/m 5.1 km/h (1 Bft) O-SO 10.5 C 23.5 C
20.09.2003 20:00 19.7 C 61 % 1021.6 hPa 0.0 l/m 5.6 km/h (1 Bft) O-SO 11.8 C 19.7 C
20.09.2003 21:00 17.7 C 69 % 1022.1 hPa 0.0 l/m 4.5 km/h (1 Bft) O-SO 11.8 C 17.7 C
20.09.2003 22:00 16.0 C 76 % 1022.3 hPa 0.0 l/m 0.6 km/h (0 Bft) O-SO 11.7 C 16.0 C
20.09.2003 23:00 14.5 C 83 % 1023.0 hPa 0.0 l/m 0.2 km/h (0 Bft) O-SO 11.6 C 14.5 C
21.09.2003 00:00 13.7 C 87 % 1023.1 hPa 0.0 l/m 0.0 km/h (0 Bft) O-SO 11.5 C 13.7 C
21.09.2003 01:00 13.2 C 88 % 1023.1 hPa 0.0 l/m 0.4 km/h (0 Bft) O-SO 11.2 C 13.2 C
21.09.2003 02:00 12.3 C 90 % 1023.1 hPa 0.0 l/m 0.0 km/h (0 Bft) N 10.8 C 12.3 C
21.09.2003 03:00 12.1 C 92 % 1023.1 hPa 0.0 l/m 0.0 km/h (0 Bft) N 10.8 C 12.1 C
21.09.2003 04:00 11.4 C 92 % 1023.1 hPa 0.0 l/m 0.0 km/h (0 Bft) N 10.2 C 11.4 C
21.09.2003 05:00 10.8 C 93 % 1023.1 hPa 0.0 l/m 0.0 km/h (0 Bft) N 9.8 C 10.8 C
21.09.2003 06:00 10.2 C 94 % 1023.6 hPa 0.0 l/m 0.0 km/h (0 Bft) N 9.3 C 10.2 C
21.09.2003 07:00 10.0 C 94 % 1024.2 hPa 0.0 l/m 0.0 km/h (0 Bft) N 9.1 C 10.0 C
21.09.2003 08:00 11.4 C 99 % 1024.2 hPa 0.0 l/m 0.0 km/h (0 Bft) N 11.3 C 11.4 C
21.09.2003 09:00 13.4 C 93 % 1025.1 hPa 0.0 l/m 0.0 km/h (0 Bft) N 12.3 C 13.4 C
21.09.2003 10:00 17.1 C 78 % 1024.7 hPa 0.0 l/m 1.9 km/h (1 Bft) O-SO 13.3 C 17.1 C
21.09.2003 11:00 20.7 C 60 % 1024.2 hPa 0.0 l/m 2.8 km/h (1 Bft) SO 12.5 C 20.7 C
21.09.2003 12:00 23.5 C 45 % 1023.1 hPa 0.0 l/m 6.4 km/h (2 Bft) O-SO 11.0 C 23.5 C
21.09.2003 13:00 25.6 C 36 % 1022.6 hPa 0.0 l/m 1.5 km/h (1 Bft) W-NW 9.5 C 25.6 C
21.09.2003 14:00 27.3 C 28 % 1021.4 hPa 0.0 l/m 3.5 km/h (1 Bft) O-SO 6.9 C 27.3 C
21.09.2003 15:00 28.3 C 20 % 1020.6 hPa 0.0 l/m 3.9 km/h (1 Bft) O-SO 3.3 C 28.3 C
21.09.2003 16:00 28.0 C 21 % 1019.7 hPa 0.0 l/m 3.4 km/h (1 Bft) W-NW 3.5 C 28.0 C
21.09.2003 17:00 27.4 C 22 % 1019.0 hPa 0.0 l/m 0.7 km/h (0 Bft) W-NW 4.0 C 27.4 C
21.09.2003 18:00 25.7 C 28 % 1019.0 hPa 0.0 l/m 1.6 km/h (1 Bft) W-NW 5.8 C 25.7 C
21.09.2003 19:00 22.4 C 40 % 1019.0 hPa 0.0 l/m 5.3 km/h (1 Bft) O-SO 7.8 C 22.4 C
21.09.2003 20:00 19.0 C 53 % 1019.0 hPa 0.0 l/m 5.4 km/h (1 Bft) O-SO 9.1 C 19.0 C
21.09.2003 21:00 16.5 C 61 % 1019.4 hPa 0.0 l/m 1.3 km/h (1 Bft) O-SO 8.8 C 16.5 C
21.09.2003 22:00 14.6 C 68 % 1019.4 hPa 0.0 l/m 0.2 km/h (0 Bft) O-SO 8.7 C 14.6 C
21.09.2003 23:00 13.5 C 71 % 1019.0 hPa 0.0 l/m 0.3 km/h (0 Bft) O-SO 8.4 C 13.5 C
Min-Datum _ 16.09.03 21.09.03 18.09.03 - 15.09.03 - 21.09.03 16.09.03
_ Min-Zeit 07:17 15:08 17:14 - 00:44 - 15:56 07:17
Minimum _ 5.7 C 20 % 1019.0 hPa - 0.0 km/h (0 Bft) - 2.9 C 4.0 C
Max-Datum _ 20.09.03 16.09.03 15.09.03 15.09.03 15.09.03 - 21.09.03 20.09.03
_ Max-Zeit 16:08 08:08 09:08 00:02 17:05 - 10:37 16:08
Maximum _ 29.1 C 100 % 1026.3 hPa 0.0 l/m 30.8 km/h
O-SO (5 Bft)
- 13.7 C 29.1 C
Durchschnitt _ 15.7 C 69 % 1022.7 hPa #0.0 l/m 2.7 km/h (1 Bft) O-SO 8.8 C 15.7 C

Durchschnitt Minimum Temp.14.5 C
Durchschnitt Maximum Temp.16.8 C
© Kaiko 2003